Terminal Aerodrome Forecast
Issued by NWS

Current Version | Previous Version | Text Only | Print | Product List | Glossary On
Versions: 1 2 3 4 5 6 7 8 9 10 11 12 13
000
FTUS45 KGGW 271720
TAFSDY
TAF
KSDY 271720Z 2718/2818 01011KT P6SM FEW120
     FM281400 04009KT P6SM BKN100
     FM281600 07010KT P6SM BKN050=

USA.gov is the U.S. government's official web portal to all federal, state and local government web resources and services.